Time,TemperatureF,DewpointF,PressureIn,WindDirection,WindDirectionDegrees,WindSpeedMPH,WindSpeedGustMPH,Humidity,HourlyPrecipIn,Conditions,Clouds,dailyrainin,SolarRadiationWatts/m^2,SoftwareType,DateUTC
2013-10-15 00:02:00,36.0,23.0,-100.00,WNW,302,7.0,18.0,59,0.00,,,0.95,0.000000,,2013-10-15 06:02:00,
2013-10-15 00:12:00,36.0,23.0,-100.00,WNW,302,7.0,18.0,59,0.00,,,0.95,0.000000,,2013-10-15 06:12:00,
2013-10-15 00:43:00,36.0,23.0,-100.00,NW,307,8.0,12.0,59,0.00,,,0.94,0.000000,,2013-10-15 06:43:00,
2013-10-15 00:52:00,36.0,23.0,-100.00,NW,307,8.0,12.0,59,0.00,,,0.94,0.000000,,2013-10-15 06:52:00,
2013-10-15 01:02:00,36.0,23.0,-100.00,NW,307,8.0,12.0,59,0.00,,,0.94,0.000000,,2013-10-15 07:02:00,
2013-10-15 01:12:00,36.0,23.0,-100.00,NW,307,8.0,12.0,59,0.00,,,0.94,0.000000,,2013-10-15 07:12:00,
2013-10-15 01:42:00,36.0,24.0,-100.00,WNW,298,4.0,11.0,61,0.00,,,0.94,0.000000,,2013-10-15 07:42:00,
2013-10-15 01:53:00,36.0,24.0,-100.00,WNW,298,4.0,11.0,61,0.00,,,0.94,0.000000,,2013-10-15 07:53:00,
2013-10-15 02:02:00,36.0,24.0,-100.00,WNW,298,4.0,11.0,61,0.00,,,0.94,0.000000,,2013-10-15 08:02:00,
2013-10-15 02:12:00,36.0,24.0,-100.00,WNW,298,4.0,11.0,61,0.00,,,0.94,0.000000,,2013-10-15 08:12:00,
2013-10-15 02:42:00,36.0,23.0,-100.00,WNW,288,6.0,10.0,60,0.00,,,0.94,0.000000,,2013-10-15 08:42:00,
2013-10-15 02:52:00,36.0,23.0,-100.00,WNW,288,6.0,10.0,60,0.00,,,0.94,0.000000,,2013-10-15 08:52:00,
2013-10-15 03:02:00,36.0,23.0,-100.00,WNW,288,6.0,10.0,60,0.00,,,0.94,0.000000,,2013-10-15 09:02:00,
2013-10-15 03:12:00,36.0,23.0,-100.00,WNW,288,6.0,10.0,60,0.00,,,0.94,0.000000,,2013-10-15 09:12:00,
2013-10-15 03:13:00,36.0,23.0,-100.00,WNW,298,7.0,14.0,58,0.00,,,0.94,0.000000,,2013-10-15 09:13:00,
2013-10-15 03:43:00,36.0,23.0,-100.00,WNW,298,7.0,14.0,58,0.00,,,0.94,0.000000,,2013-10-15 09:43:00,
2013-10-15 03:53:00,36.0,23.0,-100.00,WNW,298,7.0,14.0,58,0.00,,,0.94,0.000000,,2013-10-15 09:53:00,
2013-10-15 04:03:00,36.0,23.0,-100.00,WNW,298,7.0,14.0,58,0.00,,,0.94,0.000000,,2013-10-15 10:03:00,
2013-10-15 04:43:00,35.0,22.0,-100.00,NW,313,8.0,19.0,59,0.00,,,0.83,0.000000,,2013-10-15 10:43:00,
2013-10-15 04:53:00,35.0,22.0,-100.00,NW,313,8.0,19.0,59,0.00,,,0.83,0.000000,,2013-10-15 10:53:00,
2013-10-15 05:02:00,35.0,22.0,-100.00,NW,313,8.0,19.0,59,0.00,,,0.83,0.000000,,2013-10-15 11:02:00,
2013-10-15 05:11:00,35.0,22.0,-100.00,NW,313,8.0,19.0,59,0.00,,,0.83,0.000000,,2013-10-15 11:11:00,
2013-10-15 05:42:00,36.0,23.0,-100.00,NW,317,10.0,19.0,60,0.00,,,0.73,0.000000,,2013-10-15 11:42:00,
2013-10-15 05:53:00,36.0,23.0,-100.00,NW,317,10.0,19.0,60,0.00,,,0.73,0.000000,,2013-10-15 11:53:00,
2013-10-15 06:01:00,36.0,23.0,-100.00,NW,317,10.0,19.0,60,0.00,,,0.73,0.000000,,2013-10-15 12:01:00,
2013-10-15 06:12:00,36.0,23.0,-100.00,NW,317,10.0,19.0,60,0.00,,,0.73,0.000000,,2013-10-15 12:12:00,
2013-10-15 06:42:00,36.0,23.0,-100.00,NNW,332,19.0,29.0,59,0.00,,,0.67,0.000000,,2013-10-15 12:42:00,
2013-10-15 06:52:00,36.0,23.0,-100.00,NNW,332,19.0,29.0,59,0.00,,,0.67,0.000000,,2013-10-15 12:52:00,
2013-10-15 07:02:00,36.0,23.0,-100.00,NNW,332,19.0,29.0,59,0.00,,,0.67,0.000000,,2013-10-15 13:02:00,
2013-10-15 07:11:00,36.0,23.0,-100.00,NNW,332,19.0,29.0,59,0.00,,,0.67,0.000000,,2013-10-15 13:11:00,
2013-10-15 07:42:00,36.0,22.0,-100.00,NNW,332,17.0,30.0,56,0.00,,,0.66,0.000000,,2013-10-15 13:42:00,
2013-10-15 07:52:00,36.0,22.0,-100.00,NNW,332,17.0,30.0,56,0.00,,,0.66,0.000000,,2013-10-15 13:52:00,
2013-10-15 08:02:00,36.0,22.0,-100.00,NNW,332,17.0,30.0,56,0.00,,,0.66,0.000000,,2013-10-15 14:02:00,
2013-10-15 08:12:00,36.0,22.0,-100.00,NNW,332,17.0,30.0,56,0.00,,,0.66,0.000000,,2013-10-15 14:12:00,
2013-10-15 08:42:00,37.0,21.0,-100.00,NW,310,9.0,29.0,52,0.00,,,0.51,20.000000,,2013-10-15 14:42:00,
2013-10-15 08:52:00,37.0,21.0,-100.00,NW,310,9.0,29.0,52,0.00,,,0.51,20.000000,,2013-10-15 14:52:00,
2013-10-15 09:01:00,37.0,21.0,-100.00,NW,310,9.0,29.0,52,0.00,,,0.51,20.000000,,2013-10-15 15:01:00,
2013-10-15 09:11:00,37.0,21.0,-100.00,NW,310,9.0,29.0,52,0.00,,,0.51,20.000000,,2013-10-15 15:11:00,
2013-10-15 09:13:00,38.0,22.0,-100.00,NW,320,8.0,19.0,51,0.00,,,0.40,64.000000,,2013-10-15 15:13:00,
2013-10-15 09:44:00,38.0,22.0,-100.00,NW,320,8.0,19.0,51,0.00,,,0.40,64.000000,,2013-10-15 15:44:00,
2013-10-15 09:53:00,38.0,22.0,-100.00,NW,320,8.0,19.0,51,0.00,,,0.40,64.000000,,2013-10-15 15:53:00,
2013-10-15 10:03:00,38.0,22.0,-100.00,NW,320,8.0,19.0,51,0.00,,,0.40,64.000000,,2013-10-15 16:03:00,
2013-10-15 10:43:00,39.0,22.0,-100.00,NW,322,6.0,16.0,51,0.00,,,0.34,134.000000,,2013-10-15 16:43:00,
2013-10-15 10:53:00,39.0,22.0,-100.00,NW,322,6.0,16.0,51,0.00,,,0.34,134.000000,,2013-10-15 16:53:00,
2013-10-15 11:02:00,39.0,22.0,-100.00,NW,322,6.0,16.0,51,0.00,,,0.34,134.000000,,2013-10-15 17:02:00,
2013-10-15 11:12:00,39.0,22.0,-100.00,NW,322,6.0,16.0,51,0.00,,,0.34,134.000000,,2013-10-15 17:12:00,
2013-10-15 11:42:00,39.0,21.0,-100.00,NNW,331,7.0,13.0,49,0.00,,,0.30,173.000000,,2013-10-15 17:42:00,
2013-10-15 11:53:00,39.0,21.0,-100.00,NNW,331,7.0,13.0,49,0.00,,,0.30,173.000000,,2013-10-15 17:53:00,
2013-10-15 12:02:00,39.0,21.0,-100.00,NNW,331,7.0,13.0,49,0.00,,,0.30,173.000000,,2013-10-15 18:02:00,
2013-10-15 12:12:00,39.0,21.0,-100.00,NNW,331,7.0,13.0,49,0.00,,,0.30,173.000000,,2013-10-15 18:12:00,
2013-10-15 12:42:00,40.0,24.0,-100.00,NW,323,4.0,12.0,52,0.00,,,0.24,204.000000,,2013-10-15 18:42:00,
2013-10-15 12:52:00,40.0,24.0,-100.00,NW,323,4.0,12.0,52,0.00,,,0.24,204.000000,,2013-10-15 18:52:00,
2013-10-15 13:01:00,40.0,24.0,-100.00,NW,323,4.0,12.0,52,0.00,,,0.24,204.000000,,2013-10-15 19:01:00,
2013-10-15 13:12:00,40.0,24.0,-100.00,NW,323,4.0,12.0,52,0.00,,,0.24,204.000000,,2013-10-15 19:12:00,
2013-10-15 13:42:00,38.0,26.0,-100.00,ENE,57,3.0,9.0,62,0.00,,,0.21,161.000000,,2013-10-15 19:42:00,
2013-10-15 13:52:00,38.0,26.0,-100.00,ENE,57,3.0,9.0,62,0.00,,,0.21,161.000000,,2013-10-15 19:52:00,
2013-10-15 14:03:00,38.0,26.0,-100.00,ENE,57,3.0,9.0,62,0.00,,,0.21,161.000000,,2013-10-15 20:03:00,
2013-10-15 14:12:00,38.0,26.0,-100.00,ENE,57,3.0,9.0,62,0.00,,,0.21,161.000000,,2013-10-15 20:12:00,
2013-10-15 14:13:00,37.0,31.0,-100.00,NE,52,2.0,7.0,78,0.00,,,0.04,202.000000,,2013-10-15 20:13:00,
2013-10-15 14:42:00,37.0,31.0,-100.00,NE,52,2.0,7.0,78,0.00,,,0.04,202.000000,,2013-10-15 20:42:00,
2013-10-15 14:52:00,37.0,31.0,-100.00,NE,52,2.0,7.0,78,0.00,,,0.04,202.000000,,2013-10-15 20:52:00,
2013-10-15 15:02:00,37.0,31.0,-100.00,NE,52,2.0,7.0,78,0.00,,,0.04,202.000000,,2013-10-15 21:02:00,
2013-10-15 15:13:00,38.0,32.0,-100.00,NNE,19,2.0,5.0,78,0.00,,,0.01,252.000000,,2013-10-15 21:13:00,
2013-10-15 15:44:00,38.0,32.0,-100.00,NNE,19,2.0,5.0,78,0.00,,,0.01,252.000000,,2013-10-15 21:44:00,
2013-10-15 15:54:00,38.0,32.0,-100.00,NNE,19,2.0,5.0,78,0.00,,,0.01,252.000000,,2013-10-15 21:54:00,
2013-10-15 16:04:00,38.0,32.0,-100.00,NNE,19,2.0,5.0,78,0.00,,,0.01,252.000000,,2013-10-15 22:04:00,
2013-10-15 16:43:00,37.0,32.0,-100.00,SSE,162,3.0,5.0,83,0.00,,,0.00,132.000000,,2013-10-15 22:43:00,
2013-10-15 16:53:00,37.0,32.0,-100.00,SSE,162,3.0,5.0,83,0.00,,,0.00,132.000000,,2013-10-15 22:53:00,
2013-10-15 17:03:00,37.0,32.0,-100.00,SSE,162,3.0,5.0,83,0.00,,,0.00,132.000000,,2013-10-15 23:03:00,
2013-10-15 17:12:00,37.0,32.0,-100.00,SSE,162,3.0,5.0,83,0.00,,,0.00,132.000000,,2013-10-15 23:12:00,
2013-10-15 17:43:00,37.0,30.0,-100.00,South,184,5.0,7.0,77,0.00,,,0.00,165.000000,,2013-10-15 23:43:00,
2013-10-15 17:52:00,37.0,30.0,-100.00,South,184,5.0,7.0,77,0.00,,,0.00,165.000000,,2013-10-15 23:52:00,
2013-10-15 18:01:00,37.0,30.0,-100.00,South,184,5.0,7.0,77,0.00,,,0.00,165.000000,,2013-10-16 00:01:00,
2013-10-15 18:12:00,37.0,30.0,-100.00,South,184,5.0,7.0,77,0.00,,,0.00,165.000000,,2013-10-16 00:12:00,
2013-10-15 18:42:00,36.0,32.0,-100.00,South,183,7.0,9.0,84,0.00,,,0.00,34.000000,,2013-10-16 00:42:00,
2013-10-15 18:52:00,36.0,32.0,-100.00,South,183,7.0,9.0,84,0.00,,,0.00,34.000000,,2013-10-16 00:52:00,
2013-10-15 19:02:00,36.0,32.0,-100.00,South,183,7.0,9.0,84,0.00,,,0.00,34.000000,,2013-10-16 01:02:00,
2013-10-15 19:11:00,36.0,32.0,-100.00,South,183,7.0,9.0,84,0.00,,,0.00,34.000000,,2013-10-16 01:11:00,
2013-10-15 19:42:00,35.0,32.0,-100.00,South,184,3.0,8.0,89,0.00,,,0.00,0.000000,,2013-10-16 01:42:00,
2013-10-15 19:52:00,35.0,32.0,-100.00,South,184,3.0,8.0,89,0.00,,,0.00,0.000000,,2013-10-16 01:52:00,
2013-10-15 20:02:00,35.0,32.0,-100.00,South,184,3.0,8.0,89,0.00,,,0.00,0.000000,,2013-10-16 02:02:00,
2013-10-15 20:12:00,35.0,32.0,-100.00,South,184,3.0,8.0,89,0.00,,,0.00,0.000000,,2013-10-16 02:12:00,
2013-10-15 20:42:00,34.0,32.0,-100.00,East,94,2.0,5.0,91,0.00,,,0.00,0.000000,,2013-10-16 02:42:00,
2013-10-15 20:52:00,34.0,32.0,-100.00,East,94,2.0,5.0,91,0.00,,,0.00,0.000000,,2013-10-16 02:52:00,
2013-10-15 21:02:00,34.0,32.0,-100.00,East,94,2.0,5.0,91,0.00,,,0.00,0.000000,,2013-10-16 03:02:00,
2013-10-15 21:11:00,34.0,32.0,-100.00,East,94,2.0,5.0,91,0.00,,,0.00,0.000000,,2013-10-16 03:11:00,
2013-10-15 21:13:00,36.0,28.0,-100.00,West,267,7.0,10.0,72,0.00,,,0.00,0.000000,,2013-10-16 03:13:00,
2013-10-15 21:45:00,36.0,28.0,-100.00,West,267,7.0,10.0,72,0.00,,,0.00,0.000000,,2013-10-16 03:45:00,
2013-10-15 21:55:00,36.0,28.0,-100.00,West,267,7.0,10.0,72,0.00,,,0.00,0.000000,,2013-10-16 03:55:00,
2013-10-15 22:04:00,36.0,28.0,-100.00,West,267,7.0,10.0,72,0.00,,,0.00,0.000000,,2013-10-16 04:04:00,
2013-10-15 22:13:00,36.0,24.0,-100.00,WNW,303,5.0,9.0,62,0.00,,,0.00,0.000000,,2013-10-16 04:13:00,
2013-10-15 22:44:00,36.0,24.0,-100.00,WNW,303,5.0,9.0,62,0.00,,,0.00,0.000000,,2013-10-16 04:44:00,
2013-10-15 22:54:00,36.0,24.0,-100.00,WNW,303,5.0,9.0,62,0.00,,,0.00,0.000000,,2013-10-16 04:54:00,
2013-10-15 23:04:00,36.0,24.0,-100.00,WNW,303,5.0,9.0,62,0.00,,,0.00,0.000000,,2013-10-16 05:04:00,
2013-10-15 23:43:00,33.0,25.0,-100.00,South,174,2.0,6.0,71,0.00,,,0.00,0.000000,,2013-10-16 05:43:00,
2013-10-15 23:53:00,33.0,25.0,-100.00,South,174,2.0,6.0,71,0.00,,,0.00,0.000000,,2013-10-16 05:53:00,